Ringgold, Pennsylvania
Current Conditions -  °F | °C
As of 11:29 AM on Tuesday 21 Oct 2014 (Local Time) from KDUJ Reporting Station
Light Rain Light Rain  
Wind Chill: 50°   Ceiling: 2500
Heat Index: 50°   Visibility: 5mi
Dew Point: 48°   Wind: 5mph
Humidity: 93%   Direction: 220°SW
Pressure: 29.85"   Gusts: NA
Location:  40.99°N, 79.17°W
Report Text: KDUJ 211529Z AUTO 22004KT 5SM -RA BR SCT015 OVC025 10/09 A2985 RMK AO2 RAE04B24 P0001 T01000089
Loading
Personal Weather Stations






























Interactive Weather Map
Tropical Storm Tracking
New forecast layout! Learn more

10-Day Weather Forecast

Advertisements
Track Severe Weather on mobile